createdAt,value
2023-05-10T00:01:35.451Z,12.00
2023-05-10T00:04:02.442Z,11.90
2023-05-10T00:06:29.436Z,11.90
2023-05-10T00:08:56.453Z,11.90
2023-05-10T00:11:23.444Z,11.80
2023-05-10T00:13:50.533Z,11.80
2023-05-10T00:16:17.537Z,11.70
2023-05-10T00:18:44.561Z,11.70
2023-05-10T00:21:11.539Z,11.70
2023-05-10T00:23:38.723Z,11.70
2023-05-10T00:26:05.800Z,11.60
2023-05-10T00:28:32.921Z,11.60
2023-05-10T00:30:59.959Z,11.60
2023-05-10T00:33:26.913Z,11.50
2023-05-10T00:35:53.924Z,11.50
2023-05-10T00:38:20.912Z,11.50
2023-05-10T00:40:48.254Z,11.50
2023-05-10T00:43:15.185Z,11.40
2023-05-10T00:45:42.677Z,11.40
2023-05-10T00:48:10.165Z,11.40
2023-05-10T00:50:37.424Z,11.40
2023-05-10T00:53:05.208Z,11.40
2023-05-10T00:55:32.659Z,11.40
2023-05-10T00:57:59.673Z,11.40
2023-05-10T01:00:26.975Z,11.30
2023-05-10T01:02:55.481Z,11.30
2023-05-10T01:05:23.086Z,11.30
2023-05-10T01:07:50.069Z,11.30
2023-05-10T01:10:18.158Z,11.20
2023-05-10T01:12:48.318Z,11.20
2023-05-10T01:15:17.452Z,11.20
2023-05-10T01:17:46.502Z,11.20
2023-05-10T01:20:16.023Z,11.10
2023-05-10T01:23:04.601Z,11.10
2023-05-10T01:25:50.294Z,11.10
2023-05-10T01:28:44.883Z,11.10
2023-05-10T01:31:31.302Z,11.00
2023-05-10T01:34:08.060Z,11.00
2023-05-10T01:36:51.902Z,11.00
2023-05-10T01:39:28.460Z,11.00
2023-05-10T01:42:37.143Z,10.90
2023-05-10T01:45:09.325Z,10.90
2023-05-10T01:47:43.123Z,10.80
2023-05-10T01:50:20.838Z,10.80
2023-05-10T01:52:55.907Z,10.70
2023-05-10T01:55:26.224Z,10.70
2023-05-10T01:58:03.243Z,10.70
2023-05-10T02:00:32.353Z,10.70
2023-05-10T02:03:02.616Z,10.60
2023-05-10T02:05:31.580Z,10.60
2023-05-10T02:08:02.479Z,10.60
2023-05-10T02:10:30.945Z,10.50
2023-05-10T02:13:01.414Z,10.50
2023-05-10T02:15:29.889Z,10.50
2023-05-10T02:17:58.642Z,10.50
2023-05-10T02:20:28.223Z,10.50
2023-05-10T02:22:58.062Z,10.40
2023-05-10T02:25:26.794Z,10.40
2023-05-10T02:27:57.131Z,10.40
2023-05-10T02:30:25.004Z,10.40
2023-05-10T02:32:54.002Z,10.30
2023-05-10T02:35:21.926Z,10.30
2023-05-10T02:37:50.079Z,10.30
2023-05-10T02:40:18.945Z,10.30
2023-05-10T02:42:48.558Z,10.30
2023-05-10T02:45:20.619Z,10.20
2023-05-10T02:47:48.178Z,10.20
2023-05-10T02:50:16.130Z,10.20
2023-05-10T02:52:55.058Z,10.10
2023-05-10T02:55:33.656Z,10.10
2023-05-10T02:58:02.315Z,10.10
2023-05-10T03:00:29.681Z,10.00
2023-05-10T03:02:57.064Z,10.00
2023-05-10T03:05:24.498Z,10.00
2023-05-10T03:07:52.564Z,10.00
2023-05-10T03:10:20.360Z,9.90
2023-05-10T03:13:05.480Z,9.90
2023-05-10T03:16:19.936Z,9.90
2023-05-10T03:18:55.101Z,9.90
2023-05-10T03:21:27.227Z,9.80
2023-05-10T03:24:04.803Z,9.80
2023-05-10T03:26:33.095Z,9.80
2023-05-10T03:29:00.918Z,9.80
2023-05-10T03:31:28.234Z,9.80
2023-05-10T03:33:55.315Z,9.80
2023-05-10T03:36:22.377Z,9.70
2023-05-10T03:38:49.338Z,9.70
2023-05-10T03:41:16.392Z,9.70
2023-05-10T03:43:43.363Z,9.70
2023-05-10T03:46:10.868Z,9.70
2023-05-10T03:48:38.016Z,9.70
2023-05-10T03:51:05.008Z,9.70
2023-05-10T03:53:31.951Z,9.70
2023-05-10T03:55:58.911Z,9.70
2023-05-10T03:58:26.066Z,9.70
2023-05-10T04:00:53.478Z,9.70
2023-05-10T04:03:21.623Z,9.70
2023-05-10T04:05:48.680Z,9.70
2023-05-10T04:08:17.562Z,9.70
2023-05-10T04:10:44.742Z,9.70
2023-05-10T04:13:12.407Z,9.80
2023-05-10T04:15:39.360Z,9.80
2023-05-10T04:18:08.711Z,9.80
2023-05-10T04:20:36.013Z,9.80
2023-05-10T04:23:02.979Z,9.90
2023-05-10T04:25:30.021Z,9.90
2023-05-10T04:27:56.994Z,9.90
2023-05-10T04:30:24.030Z,9.90
2023-05-10T04:32:51.169Z,9.90
2023-05-10T04:35:18.321Z,10.00
2023-05-10T04:37:45.255Z,10.00
2023-05-10T04:40:12.844Z,10.10
2023-05-10T04:42:42.556Z,10.10
2023-05-10T04:45:10.749Z,10.20
2023-05-10T04:47:38.338Z,10.20
2023-05-10T04:50:06.479Z,10.30
2023-05-10T04:52:33.566Z,10.30
2023-05-10T04:55:00.740Z,10.40
2023-05-10T04:57:27.680Z,10.50
2023-05-10T04:59:54.646Z,10.60
2023-05-10T05:02:21.615Z,10.70
2023-05-10T05:04:48.619Z,13.70
2023-05-10T05:07:15.926Z,17.40
2023-05-10T05:09:42.911Z,19.80
2023-05-10T05:12:14.955Z,21.40
2023-05-10T05:14:42.451Z,22.60
2023-05-10T05:17:09.570Z,22.00
2023-05-10T05:19:37.169Z,18.60
2023-05-10T05:22:04.200Z,16.60
2023-05-10T05:24:36.972Z,15.20
2023-05-10T05:27:03.948Z,14.30
2023-05-10T05:29:30.994Z,13.80
2023-05-10T05:31:58.000Z,13.40
2023-05-10T05:34:25.410Z,13.10
2023-05-10T05:36:52.871Z,13.00
2023-05-10T05:39:19.917Z,12.90
2023-05-10T05:41:47.767Z,12.90
2023-05-10T05:44:14.760Z,12.90
2023-05-10T05:46:41.796Z,13.00
2023-05-10T05:49:08.828Z,13.00
2023-05-10T05:51:36.664Z,13.10
2023-05-10T05:54:05.479Z,13.20
2023-05-10T05:56:32.510Z,13.30
2023-05-10T05:58:59.524Z,13.40
2023-05-10T06:01:26.540Z,13.50
2023-05-10T06:03:53.733Z,13.60
2023-05-10T06:06:20.866Z,13.70
2023-05-10T06:08:47.896Z,13.90
2023-05-10T06:11:14.881Z,13.90
2023-05-10T06:13:43.371Z,14.10
2023-05-10T06:16:10.441Z,14.20
2023-05-10T06:18:37.480Z,14.30
2023-05-10T06:21:04.535Z,14.30
2023-05-10T06:23:31.531Z,14.40
2023-05-10T06:25:58.518Z,14.50
2023-05-10T06:28:25.482Z,14.70
2023-05-10T06:30:52.452Z,14.70
2023-05-10T06:33:19.516Z,14.80
2023-05-10T06:35:46.485Z,14.90
2023-05-10T06:38:13.536Z,15.10
2023-05-10T06:40:43.766Z,15.20
2023-05-10T06:43:11.466Z,15.30
2023-05-10T06:45:38.458Z,15.40
2023-05-10T06:48:05.649Z,15.40
2023-05-10T06:50:32.708Z,15.50
2023-05-10T06:52:59.895Z,15.60
2023-05-10T06:55:27.497Z,15.70
2023-05-10T06:57:55.164Z,15.70
2023-05-10T07:00:22.203Z,15.80
2023-05-10T07:02:49.183Z,15.90
2023-05-10T07:05:16.478Z,16.00
2023-05-10T07:07:43.659Z,16.10
2023-05-10T07:10:10.986Z,16.20
2023-05-10T07:12:38.124Z,16.20
2023-05-10T07:15:05.972Z,16.30
2023-05-10T07:17:34.618Z,16.30
2023-05-10T07:20:02.650Z,16.40
2023-05-10T07:22:29.565Z,16.50
2023-05-10T07:24:56.606Z,16.50
2023-05-10T07:27:23.601Z,16.60
2023-05-10T07:29:50.604Z,16.70
2023-05-10T07:32:17.686Z,16.80
2023-05-10T07:34:44.769Z,16.90
2023-05-10T07:37:11.804Z,17.00
2023-05-10T07:39:38.811Z,17.10
2023-05-10T07:42:06.983Z,17.20
2023-05-10T07:44:34.007Z,17.30
2023-05-10T07:47:01.085Z,17.40
2023-05-10T07:49:28.069Z,17.50
2023-05-10T07:51:55.055Z,17.70
2023-05-10T07:54:22.691Z,17.80
2023-05-10T07:56:49.668Z,17.90
2023-05-10T07:59:18.188Z,18.00
2023-05-10T08:01:45.383Z,18.20
2023-05-10T08:04:12.917Z,18.30
2023-05-10T08:06:41.646Z,18.40
2023-05-10T08:09:09.528Z,18.60
2023-05-10T08:11:36.637Z,18.60
2023-05-10T08:14:03.814Z,18.70
2023-05-10T08:16:30.980Z,18.80
2023-05-10T08:18:58.114Z,18.80
2023-05-10T08:21:25.269Z,18.90
2023-05-10T08:23:52.399Z,18.80
2023-05-10T08:26:19.481Z,18.80
2023-05-10T08:28:46.443Z,18.70
2023-05-10T08:31:13.745Z,18.70
2023-05-10T08:33:42.329Z,18.80
2023-05-10T08:36:10.910Z,18.80
2023-05-10T08:38:39.110Z,18.80
2023-05-10T08:41:07.239Z,18.60
2023-05-10T08:43:37.018Z,18.70
2023-05-10T08:46:08.054Z,18.80
2023-05-10T08:48:36.148Z,18.90
2023-05-10T08:51:04.701Z,18.90
2023-05-10T08:53:34.305Z,18.90
2023-05-10T08:56:03.480Z,18.80
2023-05-10T08:58:30.722Z,18.80
2023-05-10T09:00:59.327Z,18.80
2023-05-10T09:03:26.468Z,18.80
2023-05-10T09:05:53.604Z,19.00
2023-05-10T09:08:21.740Z,19.10
2023-05-10T09:10:49.715Z,19.20
2023-05-10T09:13:18.439Z,19.30
2023-05-10T09:15:46.887Z,19.30
2023-05-10T09:18:15.145Z,19.50
2023-05-10T09:20:42.469Z,19.50
2023-05-10T09:23:10.360Z,19.70
2023-05-10T09:25:39.670Z,19.80
2023-05-10T09:28:10.812Z,19.80
2023-05-10T09:30:38.125Z,19.90
2023-05-10T09:33:05.221Z,19.80
2023-05-10T09:35:34.601Z,19.90
2023-05-10T09:38:05.311Z,20.00
2023-05-10T09:40:32.912Z,20.10
2023-05-10T09:43:02.997Z,20.20
2023-05-10T09:45:32.948Z,20.30
2023-05-10T09:48:03.147Z,20.50
2023-05-10T09:50:31.317Z,20.50
2023-05-10T09:53:00.933Z,20.60
2023-05-10T09:55:39.965Z,21.00
2023-05-10T09:58:11.492Z,21.10
2023-05-10T10:00:41.402Z,21.20
2023-05-10T10:03:15.358Z,21.20
2023-05-10T10:05:44.897Z,21.30
2023-05-10T10:08:13.455Z,21.20
2023-05-10T10:10:46.392Z,21.00
2023-05-10T10:13:14.396Z,20.80
2023-05-10T10:15:41.727Z,21.00
2023-05-10T10:18:13.465Z,20.90
2023-05-10T10:20:40.757Z,20.90
2023-05-10T10:23:08.966Z,20.90
2023-05-10T10:25:36.654Z,21.00
2023-05-10T10:28:19.790Z,21.20
2023-05-10T10:30:54.326Z,21.40
2023-05-10T10:33:52.257Z,21.50
2023-05-10T10:36:20.220Z,21.60
2023-05-10T10:38:50.238Z,21.70
2023-05-10T10:41:38.540Z,21.90
2023-05-10T10:44:44.998Z,22.20
2023-05-10T10:47:32.185Z,22.10
2023-05-10T10:49:59.260Z,22.30
2023-05-10T10:52:37.918Z,22.30
2023-05-10T10:55:16.213Z,22.20
2023-05-10T10:57:52.929Z,22.10
2023-05-10T11:00:23.152Z,22.10
2023-05-10T11:03:22.188Z,22.20
2023-05-10T11:05:49.710Z,22.00
2023-05-10T11:08:19.647Z,21.80
2023-05-10T11:11:00.023Z,21.60
2023-05-10T11:13:30.398Z,21.60
2023-05-10T11:15:58.407Z,21.40
2023-05-10T11:18:27.781Z,21.60
2023-05-10T11:20:59.054Z,21.70
2023-05-10T11:23:31.874Z,21.80
2023-05-10T11:25:59.958Z,21.80
2023-05-10T11:28:28.798Z,22.10
2023-05-10T11:30:56.079Z,22.20
2023-05-10T11:33:23.108Z,22.30
2023-05-10T11:35:50.214Z,22.20
2023-05-10T11:38:17.308Z,22.40
2023-05-10T11:40:44.855Z,22.40
2023-05-10T11:43:12.643Z,22.40
2023-05-10T11:45:41.259Z,22.50
2023-05-10T11:48:08.941Z,22.90
2023-05-10T11:50:36.184Z,22.90
2023-05-10T11:53:03.253Z,23.00
2023-05-10T11:55:31.516Z,23.20
2023-05-10T11:58:02.838Z,23.30
2023-05-10T12:00:30.901Z,23.30
2023-05-10T12:02:58.521Z,23.00
2023-05-10T12:05:26.452Z,22.90
2023-05-10T12:07:53.639Z,22.90
2023-05-10T12:10:27.887Z,23.00
2023-05-10T12:12:54.930Z,23.00
2023-05-10T12:15:26.078Z,23.00
2023-05-10T12:17:53.293Z,22.90
2023-05-10T12:20:22.404Z,22.80
2023-05-10T12:22:59.679Z,22.60
2023-05-10T12:25:32.176Z,22.60
2023-05-10T12:28:02.394Z,22.60
2023-05-10T12:30:31.643Z,22.60
2023-05-10T12:33:02.434Z,22.40
2023-05-10T12:35:33.448Z,22.30
2023-05-10T12:38:00.878Z,22.30
2023-05-10T12:40:27.849Z,22.40
2023-05-10T12:42:54.837Z,22.40
2023-05-10T12:45:21.905Z,22.40
2023-05-10T12:47:48.898Z,22.30
2023-05-10T12:50:16.187Z,22.30
2023-05-10T12:52:43.352Z,22.30
2023-05-10T12:55:10.388Z,22.30
2023-05-10T12:57:37.392Z,22.30
2023-05-10T13:00:06.333Z,22.20
2023-05-10T13:02:33.292Z,22.30
2023-05-10T13:05:00.343Z,22.30
2023-05-10T13:07:27.312Z,22.20
2023-05-10T13:09:54.194Z,22.20
2023-05-10T13:12:21.247Z,22.10
2023-05-10T13:14:48.195Z,21.90
2023-05-10T13:17:15.100Z,21.70
2023-05-10T13:19:42.115Z,21.70
2023-05-10T13:22:09.065Z,21.60
2023-05-10T13:24:36.052Z,21.60
2023-05-10T13:27:03.436Z,21.70
2023-05-10T13:29:30.520Z,21.60
2023-05-10T13:31:57.719Z,21.50
2023-05-10T13:34:25.359Z,21.40
2023-05-10T13:36:52.396Z,21.40
2023-05-10T13:39:19.453Z,21.50
2023-05-10T13:41:46.414Z,21.40
2023-05-10T13:44:16.235Z,21.40
2023-05-10T13:46:43.700Z,21.50
2023-05-10T13:49:11.883Z,21.50
2023-05-10T13:51:39.091Z,21.50
2023-05-10T13:54:06.141Z,21.50
2023-05-10T13:56:33.116Z,21.50
2023-05-10T13:59:00.555Z,21.50
2023-05-10T14:01:27.845Z,21.50
2023-05-10T14:03:54.958Z,21.50
2023-05-10T14:06:22.980Z,21.50
2023-05-10T14:08:50.029Z,21.50
2023-05-10T14:11:17.017Z,21.50
2023-05-10T14:13:44.004Z,21.70
2023-05-10T14:16:11.154Z,21.60
2023-05-10T14:18:38.249Z,21.60
2023-05-10T14:21:05.230Z,21.60
2023-05-10T14:23:32.303Z,21.70
2023-05-10T14:25:59.220Z,21.70
2023-05-10T14:28:26.304Z,21.60
2023-05-10T14:30:53.320Z,21.60
2023-05-10T14:33:20.506Z,21.50
2023-05-10T14:35:47.953Z,21.50
2023-05-10T14:38:15.783Z,21.40
2023-05-10T14:40:43.768Z,21.40
2023-05-10T14:43:10.841Z,21.30
2023-05-10T14:45:37.969Z,21.30
2023-05-10T14:48:06.172Z,21.30
2023-05-10T14:50:37.133Z,21.30
2023-05-10T14:53:04.992Z,21.20
2023-05-10T14:55:32.012Z,21.20
2023-05-10T14:57:59.603Z,21.20
2023-05-10T15:00:27.896Z,21.30
2023-05-10T15:02:55.387Z,21.20
2023-05-10T15:05:23.197Z,21.10
2023-05-10T15:07:50.614Z,21.00
2023-05-10T15:10:19.518Z,20.90
2023-05-10T15:12:46.518Z,20.80
2023-05-10T15:15:13.409Z,20.70
2023-05-10T15:17:40.332Z,20.70
2023-05-10T15:20:08.022Z,20.60
2023-05-10T15:22:34.957Z,20.60
2023-05-10T15:25:02.639Z,20.60
2023-05-10T15:27:29.617Z,20.60
2023-05-10T15:29:56.936Z,20.70
2023-05-10T15:32:23.936Z,20.90
2023-05-10T15:34:50.932Z,21.00
2023-05-10T15:37:17.939Z,21.00
2023-05-10T15:39:45.408Z,21.00
2023-05-10T15:42:13.103Z,21.00
2023-05-10T15:44:40.088Z,21.00
2023-05-10T15:47:07.171Z,20.90
2023-05-10T15:49:34.328Z,21.10
2023-05-10T15:52:01.333Z,21.10
2023-05-10T15:54:28.275Z,21.20
2023-05-10T15:56:55.669Z,21.10
2023-05-10T15:59:22.674Z,21.20
2023-05-10T16:01:50.410Z,21.00
2023-05-10T16:04:17.405Z,21.00
2023-05-10T16:06:44.370Z,21.00
2023-05-10T16:09:11.340Z,21.00
2023-05-10T16:11:38.377Z,20.90
2023-05-10T16:14:06.701Z,20.90
2023-05-10T16:16:35.094Z,20.80
2023-05-10T16:19:03.947Z,20.80
2023-05-10T16:21:34.489Z,20.70
2023-05-10T16:24:03.247Z,20.70
2023-05-10T16:26:30.330Z,20.50
2023-05-10T16:28:57.354Z,20.50
2023-05-10T16:31:24.767Z,20.40
2023-05-10T16:33:51.823Z,20.30
2023-05-10T16:36:18.779Z,20.20
2023-05-10T16:38:45.909Z,20.10
2023-05-10T16:41:12.913Z,20.10
2023-05-10T16:43:39.962Z,20.00
2023-05-10T16:46:13.272Z,20.00
2023-05-10T16:48:40.342Z,20.00
2023-05-10T16:51:07.992Z,20.00
2023-05-10T16:53:35.437Z,20.00
2023-05-10T16:56:02.601Z,20.00
2023-05-10T16:58:29.673Z,20.00
2023-05-10T17:00:56.759Z,20.00
2023-05-10T17:03:23.838Z,20.00
2023-05-10T17:05:50.902Z,20.00
2023-05-10T17:08:17.913Z,19.90
2023-05-10T17:10:45.025Z,19.80
2023-05-10T17:13:12.051Z,19.70
2023-05-10T17:15:39.729Z,19.60
2023-05-10T17:18:07.665Z,19.60
2023-05-10T17:20:35.095Z,19.40
2023-05-10T17:23:03.413Z,19.30
2023-05-10T17:25:30.483Z,19.30
2023-05-10T17:27:57.517Z,19.20
2023-05-10T17:30:27.785Z,19.20
2023-05-10T17:32:55.030Z,19.10
2023-05-10T17:35:22.234Z,19.10
2023-05-10T17:37:49.211Z,19.00
2023-05-10T17:40:16.509Z,18.90
2023-05-10T17:42:43.534Z,18.80
2023-05-10T17:45:10.992Z,18.80
2023-05-10T17:47:38.876Z,18.80
2023-05-10T17:50:06.750Z,18.70
2023-05-10T17:52:33.834Z,18.60
2023-05-10T17:55:01.068Z,18.50
2023-05-10T17:57:28.281Z,18.50
2023-05-10T17:59:56.143Z,18.40
2023-05-10T18:02:23.169Z,18.40
2023-05-10T18:04:50.298Z,18.30
2023-05-10T18:07:17.559Z,18.20
2023-05-10T18:09:44.677Z,18.20
2023-05-10T18:12:11.777Z,18.10
2023-05-10T18:14:41.095Z,18.00
2023-05-10T18:17:10.119Z,18.00
2023-05-10T18:19:37.281Z,17.90
2023-05-10T18:22:04.554Z,17.90
2023-05-10T18:27:02.332Z,17.80
2023-05-10T18:29:29.395Z,17.70
2023-05-10T18:31:56.513Z,17.70
2023-05-10T18:34:24.008Z,17.70
2023-05-10T18:36:52.209Z,17.60
2023-05-10T18:39:19.444Z,17.60
2023-05-10T18:41:46.469Z,17.60
2023-05-10T18:44:13.894Z,17.60
2023-05-10T18:46:42.521Z,17.60
2023-05-10T18:49:09.887Z,17.50
2023-05-10T18:51:36.887Z,17.50
2023-05-10T18:54:04.430Z,17.50
2023-05-10T18:56:31.572Z,17.40
2023-05-10T18:58:58.537Z,17.40
2023-05-10T19:01:28.349Z,17.40
2023-05-10T19:03:55.757Z,17.40
2023-05-10T19:06:23.517Z,17.40
2023-05-10T19:08:51.228Z,17.30
2023-05-10T19:11:18.983Z,17.30
2023-05-10T19:13:46.906Z,17.30
2023-05-10T19:16:17.485Z,17.30
2023-05-10T19:18:45.953Z,17.30
2023-05-10T19:21:13.965Z,17.30
2023-05-10T19:23:42.557Z,17.20
2023-05-10T19:26:11.565Z,17.20
2023-05-10T19:28:39.085Z,17.10
2023-05-10T19:31:08.323Z,17.10
2023-05-10T19:33:38.971Z,17.00
2023-05-10T19:36:07.850Z,17.00
2023-05-10T19:38:35.667Z,17.00
2023-05-10T19:41:03.926Z,16.90
2023-05-10T19:43:34.586Z,16.90
2023-05-10T19:46:03.233Z,16.90
2023-05-10T19:48:31.452Z,16.90
2023-05-10T19:51:07.840Z,16.80
2023-05-10T19:53:38.081Z,16.80
2023-05-10T19:56:06.715Z,16.80
2023-05-10T19:58:34.883Z,16.80
2023-05-10T20:01:02.027Z,16.70
2023-05-10T20:03:29.721Z,16.70
2023-05-10T20:05:57.210Z,16.60
2023-05-10T20:08:25.507Z,16.50
2023-05-10T20:10:52.679Z,16.40
2023-05-10T20:13:19.789Z,16.40
2023-05-10T20:15:47.788Z,16.30
2023-05-10T20:18:15.089Z,16.20
2023-05-10T20:20:42.646Z,16.10
2023-05-10T20:23:10.111Z,16.10
2023-05-10T20:25:37.772Z,16.00
2023-05-10T20:28:06.222Z,16.00
2023-05-10T20:30:33.877Z,15.90
2023-05-10T20:33:01.106Z,15.90
2023-05-10T20:35:28.113Z,15.80
2023-05-10T20:37:55.301Z,15.80
2023-05-10T20:40:22.492Z,15.70
2023-05-10T20:42:49.834Z,15.70
2023-05-10T20:45:16.914Z,15.60
2023-05-10T20:47:46.240Z,15.60
2023-05-10T20:50:13.370Z,15.50
2023-05-10T20:52:40.507Z,15.40
2023-05-10T20:55:08.064Z,15.40
2023-05-10T20:57:35.279Z,15.30
2023-05-10T21:00:02.527Z,15.30
2023-05-10T21:02:29.542Z,15.20
2023-05-10T21:04:57.976Z,15.20
2023-05-10T21:07:25.692Z,15.10
2023-05-10T21:09:52.839Z,15.00
2023-05-10T21:12:19.879Z,15.00
2023-05-10T21:14:47.989Z,15.00
2023-05-10T21:17:14.974Z,14.90
2023-05-10T21:19:41.951Z,14.90
2023-05-10T21:22:09.100Z,14.90
2023-05-10T21:24:36.127Z,14.90
2023-05-10T21:27:03.233Z,14.80
2023-05-10T21:29:30.221Z,14.80
2023-05-10T21:31:57.287Z,14.80
2023-05-10T21:34:24.303Z,14.70
2023-05-10T21:36:51.362Z,14.70
2023-05-10T21:39:18.365Z,14.70
2023-05-10T21:41:45.360Z,14.70
2023-05-10T21:44:12.498Z,14.60
2023-05-10T21:46:39.528Z,14.60
2023-05-10T21:49:06.564Z,14.60
2023-05-10T21:51:33.708Z,14.60
2023-05-10T21:54:00.692Z,14.60
2023-05-10T21:56:27.796Z,14.60
2023-05-10T21:58:54.981Z,14.50
2023-05-10T22:01:22.001Z,14.50
2023-05-10T22:03:49.105Z,14.50
2023-05-10T22:06:16.115Z,14.50
2023-05-10T22:08:43.099Z,14.50
2023-05-10T22:11:10.101Z,14.50
2023-05-10T22:13:37.068Z,14.40
2023-05-10T22:16:04.184Z,14.40
2023-05-10T22:18:31.203Z,14.40
2023-05-10T22:20:58.212Z,14.40
2023-05-10T22:23:25.385Z,14.30
2023-05-10T22:25:52.829Z,14.30
2023-05-10T22:28:20.538Z,14.30
2023-05-10T22:30:48.556Z,14.30
2023-05-10T22:33:15.635Z,14.30
2023-05-10T22:35:42.643Z,14.30
2023-05-10T22:38:09.637Z,14.30
2023-05-10T22:40:36.654Z,14.40
2023-05-10T22:43:03.851Z,14.30
2023-05-10T22:45:31.197Z,14.40
2023-05-10T22:47:58.231Z,14.30
2023-05-10T22:50:25.469Z,14.30
2023-05-10T22:52:52.475Z,14.30
2023-05-10T22:55:19.546Z,14.40
2023-05-10T22:57:46.602Z,14.40
2023-05-10T23:00:14.259Z,14.40
2023-05-10T23:02:41.565Z,14.40
2023-05-10T23:05:09.216Z,14.40
2023-05-10T23:07:36.310Z,14.40
2023-05-10T23:10:03.348Z,14.40
2023-05-10T23:12:31.542Z,14.40
2023-05-10T23:14:58.576Z,14.40
2023-05-10T23:17:25.932Z,14.40
2023-05-10T23:19:52.936Z,14.40
2023-05-10T23:22:19.954Z,14.40
2023-05-10T23:24:46.965Z,14.40
2023-05-10T23:27:14.794Z,14.40
2023-05-10T23:29:42.533Z,14.50
2023-05-10T23:32:09.693Z,14.50
2023-05-10T23:34:36.932Z,14.50
2023-05-10T23:37:03.952Z,14.50
2023-05-10T23:39:30.969Z,14.50
2023-05-10T23:41:58.030Z,14.50
2023-05-10T23:44:25.115Z,14.50
2023-05-10T23:46:52.198Z,14.50
2023-05-10T23:49:19.393Z,14.50
2023-05-10T23:51:46.504Z,14.50
2023-05-10T23:54:13.515Z,14.40
2023-05-10T23:56:40.573Z,14.40
2023-05-10T23:59:07.645Z,14.40
